Terminal Aerodrome Forecast
Issued by NWS Bismarck, ND

Home | Current Version | Previous Version | Graphics & Text | Print | Product List | Glossary On
Versions: 1 2 3 4 5 6 7 8 9 10 11 12 13 14 15 16 17 18 19 20 21 22 23
973
FTUS43 KBIS 070535
TAFBIS
TAF
KBIS 070535Z 0706/0806 30018G28KT P6SM SCT025 OVC045
      TEMPO 0706/0710 BKN025 OVC045
     FM071000 30015G25KT P6SM OVC035
     FM071600 30018G28KT P6SM OVC025
     FM080100 30015G25KT P6SM OVC025=

USA.gov is the U.S. government's official web portal to all federal, state and local government web resources and services.